This is the latest recevied weather packets stored in our database for station/object KC4JIR. If no packets are shown the sender has not sent any weather packets the latest 10 day(s).
| Time | Temp. | Humidity | Pressure | Rain* | Wind** | Luminosity | Snow |
|---|---|---|---|---|---|---|---|
| 1778130193 | 20.56° C | 99% | 1012.3 hPa | 15.49 mm | - | 0 W/m² | - |
| 1778129890 | 20.56° C | 99% | 1012.5 hPa | 15.49 mm | - | 0 W/m² | - |
| 1778126856 | 20.56° C | 99% | 1011.9 hPa | 0 mm | - | 0 W/m² | - |
| 1778126552 | 20.56° C | 99% | 1011.6 hPa | 6.1 mm | - | 0 W/m² | - |
| 1778126247 | 20.56° C | 99% | 1012.1 hPa | 6.1 mm | - | 0 W/m² | - |
| 1778125942 | 20.56° C | 99% | 1012.1 hPa | 3.05 mm | - | 0 W/m² | - |
| 1778125635 | 20.56° C | 99% | 1012.4 hPa | 6.1 mm | - | 0 W/m² | - |
| 1778125332 | 20.56° C | 99% | 1012.4 hPa | 3.05 mm | - | 0 W/m² | - |
| 1778124114 | 21.11° C | 99% | 1011.8 hPa | 11.94 mm | - | 0 W/m² | - |
| 1778121692 | 20.56° C | 98% | 1010.5 hPa | 0 mm | - | 0 W/m² | - |
| 1778121387 | 20.56° C | 98% | 1010.6 hPa | 1.78 mm | - | 0 W/m² | - |
| 1778121085 | 20.56° C | 98% | 1010.3 hPa | 1.78 mm | - | 0 W/m² | - |
| 1778118045 | 21.67° C | 95% | 1010 hPa | 0 mm | - | 0 W/m² | - |
| 1778117743 | 21.67° C | 95% | 1010.1 hPa | 3.05 mm | - | 0 W/m² | - |
| 1778117440 | 21.67° C | 94% | 1009.8 hPa | 3.05 mm | - | 0 W/m² | - |
| 1778117137 | 23.89° C | 82% | 1009.8 hPa | 0 mm | - | 0 W/m² | - |
| 1778116833 | 23.89° C | 82% | 1009.7 hPa | 0 mm | - | 0 W/m² | - |
| 1778116531 | 23.89° C | 82% | 1010.3 hPa | 0 mm | - | 0 W/m² | - |
| 1778116226 | 24.44° C | 72% | 1010.6 hPa | 0 mm | - | 0 W/m² | - |
| 1778115921 | 24.44° C | 72% | 1011 hPa | 0 mm | - | 0 W/m² | - |
| 1778115617 | 24.44° C | 72% | 1010.9 hPa | 0 mm | - | 0 W/m² | - |
| 1778115315 | 25° C | 71% | 1010.8 hPa | 0 mm | - | 0 W/m² | - |
| 1778115011 | 25° C | 73% | 1010.3 hPa | 0 mm | - | 0 W/m² | - |
| 1778114708 | 25° C | 71% | 1010.6 hPa | 0 mm | - | 0 W/m² | - |
| 1778114406 | 25° C | 68% | 1010.5 hPa | 0 mm | - | 0 W/m² | - |
* Rain latest hour (hover to see other rain measurements)
** Current wind speed in m/s (hover to see current wind gust speed)